Time;durP1;ratioP1;P1;durP2;ratioP2;P2;SDS_P1;SDS_P2;PMS_P1;PMS_P2;Temp;Humidity;BMP_temperature;BMP_pressure;BME280_temperature;BME280_humidity;BME280_pressure;Samples;Min_cycle;Max_cycle;Signal;HPM_P1;HPM_P2
2023/08/13 00:02:06;;;;;;;9.38;2.75;;;;;;;18.38;70.53;101487.09;3612678;39;20055;-64
2023/08/13 00:04:32;;;;;;;7.05;3.05;;;;;;;18.27;69.20;101486.16;3613370;39;20069;-65
2023/08/13 00:07:00;;;;;;;7.75;3.58;;;;;;;18.14;70.52;101462.78;3612894;39;20070;-64
2023/08/13 00:09:26;;;;;;;10.98;3.50;;;;;;;18.27;70.04;101490.75;3613039;39;20062;-64
2023/08/13 00:11:53;;;;;;;8.32;2.70;;;;;;;18.23;70.70;101487.38;3619410;39;20322;-65
2023/08/13 00:14:19;;;;;;;9.55;3.03;;;;;;;18.21;70.65;101485.81;3612734;39;20565;-65
2023/08/13 00:16:45;;;;;;;6.95;2.70;;;;;;;18.18;71.91;101480.63;3613078;39;20049;-65
2023/08/13 00:19:11;;;;;;;10.73;4.00;;;;;;;18.16;71.56;101494.34;3607387;39;20049;-64
2023/08/13 00:21:36;;;;;;;6.80;2.85;;;;;;;18.11;71.67;101485.72;3614228;39;20059;-64
2023/08/13 00:24:03;;;;;;;8.45;3.45;;;;;;;18.08;71.96;101485.97;3612815;39;20381;-64
2023/08/13 00:26:28;;;;;;;12.35;4.55;;;;;;;18.06;72.35;101480.63;3617519;39;20047;-64
2023/08/13 00:28:54;;;;;;;9.43;2.88;;;;;;;18.02;73.36;101481.03;3614138;39;20115;-64
2023/08/13 00:31:19;;;;;;;9.93;3.10;;;;;;;17.96;73.13;101476.94;3612596;39;20050;-64
2023/08/13 00:33:45;;;;;;;9.85;3.13;;;;;;;17.90;73.49;101471.16;3614336;39;20050;-65
2023/08/13 00:36:11;;;;;;;12.00;3.85;;;;;;;17.88;72.44;101481.28;3616397;39;20039;-65
2023/08/13 00:38:36;;;;;;;7.72;3.22;;;;;;;17.86;73.33;101479.56;3614287;39;20050;-64
2023/08/13 00:41:02;;;;;;;7.90;2.80;;;;;;;17.84;73.60;101473.38;3614660;39;20054;-64
2023/08/13 00:43:27;;;;;;;7.60;2.63;;;;;;;17.81;73.56;101473.63;3612637;39;20086;-64
2023/08/13 00:45:54;;;;;;;9.23;2.78;;;;;;;17.81;73.63;101472.78;3615156;39;20127;-66
2023/08/13 00:48:21;;;;;;;6.50;3.30;;;;;;;17.79;73.69;101481.06;3615283;39;20637;-64
2023/08/13 00:50:47;;;;;;;6.28;2.95;;;;;;;17.77;74.01;101472.16;3612654;39;20334;-65
2023/08/13 00:53:14;;;;;;;8.70;3.00;;;;;;;17.69;73.25;101452.84;3612818;39;20090;-65
2023/08/13 00:55:39;;;;;;;11.50;3.10;;;;;;;17.77;74.06;101460.44;3614836;39;20051;-64
2023/08/13 00:58:06;;;;;;;10.25;3.63;;;;;;;17.73;73.80;101461.59;3613718;39;20082;-65
2023/08/13 01:00:32;;;;;;;9.77;3.38;;;;;;;17.75;73.54;101462.34;3615570;39;20425;-66
2023/08/13 01:02:58;;;;;;;8.05;3.22;;;;;;;17.69;73.72;101455.56;3618304;39;21473;-65
2023/08/13 01:05:43;;;;;;;7.38;3.08;;;;;;;17.70;74.44;101473.63;3616001;39;20050;-65
2023/08/13 01:08:40;;;;;;;6.63;3.10;;;;;;;17.63;74.06;101465.09;3607408;39;20095;-66
2023/08/13 01:11:57;;;;;;;7.45;3.40;;;;;;;17.62;74.92;101467.94;3615205;39;20066;-65
2023/08/13 01:14:48;;;;;;;7.60;2.85;;;;;;;17.53;75.09;101468.69;3600292;39;21120;-66
2023/08/13 01:17:17;;;;;;;6.45;3.53;;;;;;;17.55;74.49;101472.16;3616278;39;20060;-64
2023/08/13 01:19:43;;;;;;;7.70;2.53;;;;;;;17.55;74.52;101477.59;3608955;39;20059;-65
2023/08/13 01:22:09;;;;;;;7.38;3.03;;;;;;;17.54;74.69;101476.72;3616974;39;20053;-65
2023/08/13 01:24:34;;;;;;;9.05;3.75;;;;;;;17.54;74.67;101484.03;3615981;39;20059;-65
2023/08/13 01:27:23;;;;;;;8.00;2.53;;;;;;;17.49;74.39;101480.81;3617071;39;20077;-65
2023/08/13 01:29:54;;;;;;;8.35;3.53;;;;;;;17.46;75.17;101479.19;3616040;39;20493;-64
2023/08/13 01:32:31;;;;;;;8.00;2.80;;;;;;;17.28;74.96;101453.47;3617394;39;20070;-64
2023/08/13 01:34:58;;;;;;;8.32;2.78;;;;;;;17.41;75.43;101475.97;3619621;39;20057;-65
2023/08/13 01:37:25;;;;;;;6.30;2.60;;;;;;;17.43;75.64;101475.84;3616371;39;20065;-65
2023/08/13 01:39:51;;;;;;;8.75;3.10;;;;;;;17.43;74.96;101481.28;3615662;39;20046;-64
2023/08/13 01:42:17;;;;;;;7.00;2.50;;;;;;;17.40;74.91;101474.25;3606558;39;20050;-64
2023/08/13 01:44:43;;;;;;;5.93;2.22;;;;;;;17.39;75.48;101475.25;3617916;39;20122;-64
2023/08/13 01:47:08;;;;;;;9.70;2.92;;;;;;;17.37;76.16;101475.34;3616124;39;20047;-64
2023/08/13 01:49:34;;;;;;;12.32;3.65;;;;;;;17.42;76.23;101474.13;3615419;39;20050;-66
2023/08/13 01:52:00;;;;;;;12.80;3.63;;;;;;;17.16;75.80;101428.19;3615916;39;20055;-64
2023/08/13 01:54:26;;;;;;;10.70;3.25;;;;;;;17.39;76.01;101477.97;3616038;39;20342;-64
2023/08/13 01:56:52;;;;;;;10.82;3.63;;;;;;;17.38;75.72;101477.09;3616193;39;20343;-64
2023/08/13 01:59:17;;;;;;;9.60;3.05;;;;;;;17.37;76.15;101467.19;3615798;39;20368;-65
2023/08/13 02:01:43;;;;;;;9.63;3.33;;;;;;;17.37;75.80;101474.50;3615457;39;20055;-65
2023/08/13 02:04:08;;;;;;;8.95;3.20;;;;;;;17.33;76.17;101465.72;3620843;39;20289;-64
2023/08/13 02:06:35;;;;;;;10.25;2.50;;;;;;;17.34;75.81;101472.00;3618310;39;20066;-64
2023/08/13 02:09:02;;;;;;;5.45;2.17;;;;;;;17.32;76.97;101472.16;3617499;39;20058;-64
2023/08/13 02:11:28;;;;;;;6.57;2.47;;;;;;;17.28;76.69;101470.66;3604895;39;20058;-65
2023/08/13 02:13:55;;;;;;;6.95;2.40;;;;;;;17.28;76.54;101472.50;3616845;39;20426;-64
2023/08/13 02:16:21;;;;;;;6.60;2.60;;;;;;;17.26;77.04;101466.34;3613829;39;20413;-64
2023/08/13 02:18:47;;;;;;;10.50;3.58;;;;;;;17.21;76.87;101461.25;3618812;39;20043;-64
2023/08/13 02:21:12;;;;;;;6.60;2.92;;;;;;;17.14;77.44;101446.44;3613562;39;20043;-64
2023/08/13 02:23:38;;;;;;;7.78;2.63;;;;;;;17.22;77.13;101460.28;3613959;39;20412;-64
2023/08/13 02:26:03;;;;;;;8.90;2.85;;;;;;;17.21;77.69;101465.84;3613584;39;20047;-64
2023/08/13 02:28:29;;;;;;;7.57;2.50;;;;;;;17.17;77.12;101460.66;3618541;39;20061;-65
2023/08/13 02:30:55;;;;;;;9.57;3.40;;;;;;;17.13;78.01;101455.59;3613398;39;20050;-64
2023/08/13 02:33:20;;;;;;;8.80;2.90;;;;;;;17.12;78.31;101460.13;3618621;39;20080;-64
2023/08/13 02:35:46;;;;;;;7.43;2.83;;;;;;;17.09;78.50;101454.09;3614493;39;20340;-64
2023/08/13 02:38:11;;;;;;;8.15;3.10;;;;;;;17.08;78.94;101458.66;3614221;39;20070;-64
2023/08/13 02:40:37;;;;;;;7.55;2.75;;;;;;;17.04;79.38;101449.03;3614625;39;20043;-64
2023/08/13 02:43:03;;;;;;;7.50;2.20;;;;;;;16.94;79.27;101442.59;3613087;39;20384;-64
2023/08/13 02:45:29;;;;;;;7.63;2.40;;;;;;;16.96;79.70;101448.75;3614083;39;20061;-65
2023/08/13 02:47:56;;;;;;;8.48;2.38;;;;;;;16.96;80.13;101453.31;3615191;39;20055;-65
2023/08/13 02:50:22;;;;;;;7.22;2.35;;;;;;;16.83;79.60;101432.56;3613498;39;20057;-65
2023/08/13 02:52:48;;;;;;;8.38;2.22;;;;;;;16.91;80.49;101451.00;3613782;39;20384;-65
2023/08/13 02:55:14;;;;;;;10.15;3.70;;;;;;;16.90;80.69;101446.53;3613791;39;20088;-64
2023/08/13 02:57:40;;;;;;;9.20;3.17;;;;;;;16.88;79.94;101454.81;3613105;39;20047;-65
2023/08/13 03:00:07;;;;;;;9.70;3.40;;;;;;;16.81;81.08;101442.69;3616383;39;20094;-64
2023/08/13 03:02:33;;;;;;;8.63;3.20;;;;;;;16.84;80.79;101450.59;3613565;39;20087;-65
2023/08/13 03:04:59;;;;;;;9.18;2.78;;;;;;;16.84;80.30;101441.56;3613670;39;20065;-65
2023/08/13 03:07:24;;;;;;;6.88;2.33;;;;;;;16.83;81.24;101442.56;3613975;39;20065;-65
2023/08/13 03:09:50;;;;;;;8.45;2.80;;;;;;;16.24;80.57;101343.09;3614584;39;20086;-66
2023/08/13 03:12:16;;;;;;;9.30;2.70;;;;;;;16.80;80.87;101446.38;3615805;39;20082;-65
2023/08/13 03:14:41;;;;;;;9.55;3.13;;;;;;;16.77;80.57;101449.34;3616793;39;20356;-66
2023/08/13 03:17:08;;;;;;;9.95;3.25;;;;;;;16.76;80.47;101446.75;3613472;39;20058;-65
2023/08/13 03:19:33;;;;;;;10.27;3.25;;;;;;;16.73;81.54;101441.53;3613273;39;20042;-66
2023/08/13 03:21:59;;;;;;;9.70;2.95;;;;;;;16.75;81.27;101451.31;3613665;39;20077;-67
2023/08/13 03:24:25;;;;;;;7.03;2.65;;;;;;;16.75;80.81;101448.59;3614865;39;20054;-66
2023/08/13 03:26:50;;;;;;;8.70;2.40;;;;;;;16.75;81.38;101451.31;3616535;39;20056;-65
2023/08/13 03:29:16;;;;;;;9.48;2.33;;;;;;;16.63;81.15;101427.81;3617054;39;20100;-65
2023/08/13 03:31:41;;;;;;;6.78;2.47;;;;;;;16.76;81.59;101453.03;3613109;39;20047;-66
2023/08/13 03:34:07;;;;;;;8.48;2.40;;;;;;;16.75;81.25;101454.03;3617175;39;20050;-66
2023/08/13 03:36:33;;;;;;;7.72;2.03;;;;;;;16.68;80.95;101439.16;3604447;39;20051;-67
2023/08/13 03:38:58;;;;;;;5.47;2.38;;;;;;;16.75;81.11;101451.31;3614384;39;20077;-65
2023/08/13 03:41:24;;;;;;;7.43;2.47;;;;;;;16.76;80.44;101442.19;3618806;39;20050;-66
2023/08/13 03:43:50;;;;;;;11.25;2.70;;;;;;;16.73;80.42;101442.38;3618579;39;20077;-66
2023/08/13 03:46:15;;;;;;;5.55;2.40;;;;;;;16.73;80.75;101446.97;3615876;39;20055;-66
2023/08/13 03:48:41;;;;;;;7.05;2.60;;;;;;;16.62;81.40;101426.94;3616089;39;20047;-66
2023/08/13 03:51:06;;;;;;;7.05;2.20;;;;;;;16.68;81.09;101442.75;3613086;39;20087;-65
2023/08/13 03:53:32;;;;;;;10.23;2.83;;;;;;;16.62;81.30;101428.81;3612938;39;20047;-66
2023/08/13 03:55:58;;;;;;;12.27;2.65;;;;;;;16.68;81.03;101447.28;3615911;39;20060;-66
2023/08/13 03:58:24;;;;;;;7.38;2.42;;;;;;;16.69;81.47;101451.75;3615063;39;20056;-64
2023/08/13 04:00:50;;;;;;;12.45;2.92;;;;;;;16.63;81.54;101441.38;3618406;39;20110;-66
2023/08/13 04:03:15;;;;;;;9.13;2.30;;;;;;;16.63;81.30;101446.81;3613233;39;20074;-65
2023/08/13 04:05:41;;;;;;;9.15;2.80;;;;;;;16.57;81.00;101442.72;3616116;39;20065;-66
2023/08/13 04:08:07;;;;;;;9.52;2.63;;;;;;;16.63;81.78;101452.25;3610606;39;20097;-64
2023/08/13 04:10:32;;;;;;;8.48;2.58;;;;;;;16.65;81.75;101450.25;3613210;39;20059;-64
2023/08/13 04:13:00;;;;;;;8.52;2.70;;;;;;;16.66;81.34;101457.44;3615395;39;20337;-64
2023/08/13 04:15:27;;;;;;;8.65;2.50;;;;;;;16.68;81.67;101463.59;3615298;39;20051;-64
2023/08/13 04:17:52;;;;;;;10.68;2.53;;;;;;;16.65;80.86;101452.97;3614983;39;20054;-64
2023/08/13 04:20:20;;;;;;;8.32;2.63;;;;;;;16.61;81.38;101456.91;3613215;39;20059;-64
2023/08/13 04:22:45;;;;;;;4.47;2.40;;;;;;;16.55;81.72;101441.97;3614149;39;20043;-64
2023/08/13 04:25:11;;;;;;;9.18;2.85;;;;;;;16.60;81.59;101458.75;3615582;39;20058;-64
2023/08/13 04:27:37;;;;;;;7.97;2.78;;;;;;;16.38;81.95;101421.56;3612551;39;20325;-64
2023/08/13 04:30:04;;;;;;;9.10;2.78;;;;;;;16.09;82.23;101372.25;3612296;39;20054;-64
2023/08/13 04:32:31;;;;;;;6.35;2.55;;;;;;;16.58;82.21;101444.44;3615677;39;20433;-64
2023/08/13 04:34:58;;;;;;;8.55;2.50;;;;;;;16.51;82.25;101431.47;3616784;39;20053;-64
2023/08/13 04:37:24;;;;;;;8.68;2.55;;;;;;;16.62;81.53;101447.81;3613475;39;20042;-64
2023/08/13 04:39:49;;;;;;;7.28;2.40;;;;;;;16.62;81.79;101453.22;3613930;39;20057;-64
2023/08/13 04:42:15;;;;;;;8.40;2.85;;;;;;;16.63;82.01;101452.25;3612867;39;20160;-66
2023/08/13 04:44:41;;;;;;;6.25;2.47;;;;;;;16.61;81.65;101452.34;3612073;39;20055;-64
2023/08/13 04:47:06;;;;;;;7.43;2.50;;;;;;;16.56;82.38;101441.00;3612586;39;20088;-64
2023/08/13 04:49:32;;;;;;;9.18;2.40;;;;;;;16.65;82.60;101461.09;3612660;39;20050;-65
2023/08/13 04:51:58;;;;;;;8.45;2.65;;;;;;;16.69;82.51;101468.06;3616367;39;20043;-66
2023/08/13 04:54:23;;;;;;;6.50;2.70;;;;;;;16.71;81.61;101463.34;3612409;39;20124;-65
2023/08/13 04:56:49;;;;;;;10.15;2.92;;;;;;;16.73;81.69;101464.09;3612674;39;20432;-66
2023/08/13 04:59:14;;;;;;;11.23;3.10;;;;;;;16.74;82.00;101463.13;3612315;39;20045;-65
2023/08/13 05:01:40;;;;;;;7.28;2.85;;;;;;;16.76;81.91;101460.31;3615741;39;20046;-65
2023/08/13 05:04:07;;;;;;;7.80;2.97;;;;;;;16.78;81.99;101461.94;3618555;39;20050;-64
2023/08/13 05:06:32;;;;;;;7.97;2.70;;;;;;;16.80;81.54;101461.81;3612996;39;20074;-65
2023/08/13 05:08:58;;;;;;;6.50;2.90;;;;;;;16.82;81.45;101452.56;3614092;39;20385;-65
2023/08/13 05:11:24;;;;;;;8.60;2.67;;;;;;;16.85;82.05;101452.31;3613566;39;20061;-65
2023/08/13 05:13:49;;;;;;;7.80;2.60;;;;;;;16.84;82.32;101452.44;3615260;39;20078;-66
2023/08/13 05:16:15;;;;;;;8.90;3.08;;;;;;;16.87;82.24;101460.34;3613320;39;20305;-65
2023/08/13 05:18:40;;;;;;;6.20;2.50;;;;;;;16.91;81.77;101457.28;3614401;39;20047;-65
2023/08/13 05:21:06;;;;;;;9.30;3.20;;;;;;;16.93;81.23;101449.00;3613765;39;20050;-65
2023/08/13 05:23:32;;;;;;;9.95;3.00;;;;;;;16.98;81.21;101462.22;3612179;39;20047;-67
2023/08/13 05:25:57;;;;;;;9.02;3.28;;;;;;;16.99;81.14;101461.22;3616297;39;20054;-68
2023/08/13 05:28:23;;;;;;;9.65;3.03;;;;;;;17.04;81.61;101469.91;3612324;39;20069;-65
2023/08/13 05:30:48;;;;;;;7.55;3.13;;;;;;;17.03;81.01;101462.72;3612431;39;20088;-65
2023/08/13 05:33:14;;;;;;;9.27;2.72;;;;;;;17.05;80.93;101474.34;3612235;39;20062;-65
2023/08/13 05:35:40;;;;;;;10.73;2.90;;;;;;;17.06;80.38;101471.50;3612299;39;20055;-65
2023/08/13 05:38:05;;;;;;;5.93;3.00;;;;;;;17.06;80.64;101463.38;3612378;39;20047;-65
2023/08/13 05:40:31;;;;;;;8.38;2.92;;;;;;;17.12;80.81;101467.44;3612016;39;20057;-66
2023/08/13 05:42:57;;;;;;;9.02;3.25;;;;;;;17.08;80.98;101466.81;3612507;39;20060;-65
2023/08/13 05:45:22;;;;;;;8.63;2.88;;;;;;;17.12;81.47;101471.00;3613441;39;20060;-66
2023/08/13 05:47:48;;;;;;;10.10;2.83;;;;;;;17.15;81.67;101475.34;3614315;39;20070;-66
2023/08/13 05:50:13;;;;;;;8.23;2.70;;;;;;;17.17;81.35;101478.81;3620707;39;20049;-65
2023/08/13 05:52:39;;;;;;;9.70;2.80;;;;;;;17.16;80.85;101464.34;3613944;39;20058;-66
2023/08/13 05:55:06;;;;;;;7.57;3.13;;;;;;;17.26;80.49;101477.22;3613907;39;20131;-65
2023/08/13 05:57:31;;;;;;;9.60;2.88;;;;;;;17.30;80.46;101479.56;3622107;39;20130;-67
2023/08/13 05:59:57;;;;;;;8.18;2.80;;;;;;;17.33;80.63;101479.31;3615195;39;20070;-66
2023/08/13 06:02:23;;;;;;;7.55;2.88;;;;;;;17.39;80.69;101478.81;3615687;39;20059;-65
2023/08/13 06:04:48;;;;;;;7.97;2.85;;;;;;;17.46;80.83;101484.63;3619305;39;20146;-66
2023/08/13 06:07:14;;;;;;;5.45;2.30;;;;;;;17.53;79.74;101485.84;3613524;39;20056;-66
2023/08/13 06:09:39;;;;;;;8.93;2.45;;;;;;;17.59;78.85;101479.91;3613547;39;20293;-66
2023/08/13 06:12:06;;;;;;;10.55;3.00;;;;;;;17.46;79.31;101445.72;3616506;39;20050;-66
2023/08/13 06:14:32;;;;;;;6.85;2.55;;;;;;;17.75;78.62;101490.41;3616563;39;20043;-66
2023/08/13 06:16:57;;;;;;;7.05;2.58;;;;;;;17.62;78.79;101446.19;3616265;39;20057;-66
2023/08/13 06:19:23;;;;;;;9.38;3.10;;;;;;;17.86;78.71;101476.00;3614096;39;20275;-66
2023/08/13 06:21:49;;;;;;;11.57;3.10;;;;;;;17.98;78.36;101485.88;3614630;39;20054;-66
2023/08/13 06:24:14;;;;;;;7.13;2.63;;;;;;;18.08;77.66;101486.81;3610407;39;20043;-66
2023/08/13 06:26:40;;;;;;;9.32;2.72;;;;;;;18.19;78.31;101487.78;3613531;39;20308;-66
2023/08/13 06:29:06;;;;;;;5.25;2.22;;;;;;;18.28;77.48;101478.84;3613786;39;20047;-66
2023/08/13 06:31:32;;;;;;;6.25;2.58;;;;;;;18.30;77.54;101476.88;3618639;39;20047;-66
2023/08/13 06:33:57;;;;;;;9.80;2.92;;;;;;;18.38;77.37;101479.78;3613656;39;20058;-66
2023/08/13 06:36:23;;;;;;;8.07;2.47;;;;;;;18.43;76.48;101480.28;3614618;39;20411;-65
2023/08/13 06:38:49;;;;;;;10.23;2.83;;;;;;;18.50;76.25;101486.94;3614326;39;20061;-66
2023/08/13 06:41:14;;;;;;;7.90;2.63;;;;;;;18.53;75.92;101477.63;3615010;39;20050;-66
2023/08/13 06:43:40;;;;;;;6.63;2.35;;;;;;;18.67;75.41;101477.31;3614197;39;20046;-66
2023/08/13 06:46:05;;;;;;;6.68;2.70;;;;;;;18.76;75.68;101487.44;3618538;39;20051;-66
2023/08/13 06:48:33;;;;;;;7.22;2.35;;;;;;;18.72;75.34;101458.75;3617061;39;20051;-66
2023/08/13 06:51:00;;;;;;;8.48;2.20;;;;;;;18.93;73.99;101488.72;3613750;39;20054;-66
2023/08/13 06:53:26;;;;;;;7.88;2.50;;;;;;;18.99;75.20;101492.75;3613624;39;20061;-65
2023/08/13 06:55:52;;;;;;;8.35;2.55;;;;;;;19.06;74.70;101485.81;3615444;39;20370;-66
2023/08/13 06:58:18;;;;;;;5.53;2.13;;;;;;;19.12;74.81;101482.53;3613874;39;20050;-66
2023/08/13 07:00:46;;;;;;;7.47;2.28;;;;;;;19.11;74.68;101472.63;3613209;39;20139;-66
2023/08/13 07:03:12;;;;;;;9.43;2.65;;;;;;;19.27;75.34;101476.72;3614163;39;20051;-66
2023/08/13 07:05:40;;;;;;;5.43;2.00;;;;;;;19.36;73.50;101476.78;3613308;39;20057;-66
2023/08/13 07:08:09;;;;;;;5.28;2.35;;;;;;;19.44;72.94;101478.81;3613585;39;20305;-66
2023/08/13 07:10:35;;;;;;;7.28;2.20;;;;;;;19.46;74.26;101460.47;3615110;39;20094;-66
2023/08/13 07:13:00;;;;;;;7.20;2.25;;;;;;;19.59;72.91;101477.44;3619028;39;20046;-66
2023/08/13 07:15:26;;;;;;;6.97;2.30;;;;;;;19.67;73.92;101474.09;3614152;39;20054;-66
2023/08/13 07:17:52;;;;;;;8.48;2.33;;;;;;;19.53;73.09;101447.13;3614155;39;20081;-66
2023/08/13 07:20:18;;;;;;;5.32;2.25;;;;;;;19.79;73.19;101464.78;3613879;39;20066;-66
2023/08/13 07:22:46;;;;;;;6.40;2.22;;;;;;;19.91;72.61;101468.25;3615262;39;20082;-66
2023/08/13 07:25:12;;;;;;;7.60;2.50;;;;;;;20.14;72.50;101472.47;3613352;39;20143;-66
2023/08/13 07:27:40;;;;;;;5.85;2.03;;;;;;;20.30;71.87;101471.06;3615555;39;20043;-65
2023/08/13 07:30:09;;;;;;;6.75;2.65;;;;;;;20.40;71.11;101474.66;3613081;39;20049;-66
2023/08/13 07:32:42;;;;;;;6.20;1.83;;;;;;;20.54;70.70;101471.50;3613521;39;20378;-66
2023/08/13 07:35:10;;;;;;;8.57;2.22;;;;;;;20.67;69.95;101481.28;3613094;39;20388;-66
2023/08/13 07:37:36;;;;;;;8.13;2.38;;;;;;;20.75;70.08;101475.97;3614194;39;20073;-66
2023/08/13 07:40:11;;;;;;;9.02;2.50;;;;;;;20.88;69.50;101471.06;3614980;39;20282;-66
2023/08/13 07:42:39;;;;;;;12.27;2.33;;;;;;;20.96;68.82;101479.38;3615024;39;20054;-66
2023/08/13 07:45:05;;;;;;;7.65;2.53;;;;;;;20.99;68.56;101464.56;3614227;39;20199;-66
2023/08/13 07:47:32;;;;;;;9.38;2.53;;;;;;;21.14;68.69;101475.91;3613434;39;20074;-66
2023/08/13 07:49:58;;;;;;;7.13;4.22;;;;;;;21.19;67.37;101477.19;3614034;39;20119;-66
2023/08/13 07:52:24;;;;;;;8.88;3.85;;;;;;;21.30;66.91;101474.25;3613745;39;20095;-66
2023/08/13 07:54:49;;;;;;;6.57;2.15;;;;;;;21.37;66.86;101473.69;3614580;39;20127;-66
2023/08/13 07:57:15;;;;;;;7.10;2.20;;;;;;;21.45;66.80;101474.69;3615706;39;20324;-67
2023/08/13 07:59:41;;;;;;;7.63;1.95;;;;;;;21.53;66.02;101472.06;3612736;39;20481;-66
2023/08/13 08:02:08;;;;;;;6.05;2.15;;;;;;;21.63;66.46;101469.28;3613653;39;20051;-66
2023/08/13 08:04:34;;;;;;;7.95;2.20;;;;;;;21.76;65.89;101466.22;3613109;39;20047;-67
2023/08/13 08:06:59;;;;;;;7.43;2.25;;;;;;;21.86;65.60;101474.38;3616521;39;20126;-67
2023/08/13 08:09:25;;;;;;;7.38;2.08;;;;;;;21.82;64.31;101457.38;3617209;39;20071;-66
2023/08/13 08:11:51;;;;;;;5.28;2.13;;;;;;;21.93;63.68;101470.84;3613605;39;20390;-65
2023/08/13 08:14:17;;;;;;;7.88;2.03;;;;;;;21.92;64.18;101473.75;3613556;39;20087;-66
2023/08/13 08:16:42;;;;;;;7.55;2.10;;;;;;;21.87;65.15;101465.97;3612698;39;20332;-66
2023/08/13 08:19:08;;;;;;;4.60;1.60;;;;;;;21.97;63.83;101471.41;3613221;39;20087;-66
2023/08/13 08:21:34;;;;;;;7.20;1.92;;;;;;;22.01;64.42;101473.69;3613913;39;20055;-67
2023/08/13 08:24:03;;;;;;;7.70;2.28;;;;;;;21.56;64.52;101395.13;3614428;39;20084;-66
2023/08/13 08:26:28;;;;;;;6.13;1.83;;;;;;;22.06;64.41;101469.63;3612853;39;20367;-67
2023/08/13 08:28:54;;;;;;;6.68;1.98;;;;;;;22.01;64.07;101467.31;3613120;39;20296;-66
2023/08/13 08:31:20;;;;;;;9.32;2.65;;;;;;;22.11;63.76;101472.78;3612492;39;20618;-66
2023/08/13 08:33:46;;;;;;;6.10;2.13;;;;;;;22.18;64.84;101460.22;3613220;39;20123;-66
2023/08/13 08:36:11;;;;;;;7.00;2.45;;;;;;;22.31;64.52;101468.91;3612772;39;20300;-66
2023/08/13 08:38:37;;;;;;;6.82;2.03;;;;;;;22.45;65.36;101467.47;3612981;39;20079;-66
2023/08/13 08:41:03;;;;;;;6.38;2.25;;;;;;;22.57;62.25;101473.59;3613805;39;20062;-66
2023/08/13 08:43:33;;;;;;;5.93;2.13;;;;;;;22.63;60.84;101459.25;3612683;39;20050;-67
2023/08/13 08:46:01;;;;;;;6.20;1.90;;;;;;;22.66;61.38;101467.16;3612511;39;20476;-66
2023/08/13 08:48:29;;;;;;;9.57;2.05;;;;;;;22.70;59.56;101474.03;3614065;39;20409;-65
2023/08/13 08:50:56;;;;;;;6.47;2.35;;;;;;;22.73;59.67;101462.75;3613032;39;20055;-66
2023/08/13 08:53:23;;;;;;;6.10;2.00;;;;;;;22.81;60.13;101454.63;3613866;39;20063;-66
2023/08/13 08:55:49;;;;;;;6.25;2.08;;;;;;;22.98;59.93;101461.09;3613012;39;20391;-66
2023/08/13 08:58:15;;;;;;;5.32;1.85;;;;;;;22.91;58.08;101430.69;3612589;39;20397;-66
2023/08/13 09:00:41;;;;;;;5.35;1.85;;;;;;;23.23;59.48;101458.53;3613077;39;20091;-66
2023/08/13 09:03:07;;;;;;;4.38;2.05;;;;;;;23.27;57.38;101449.81;3613511;39;20086;-66
2023/08/13 09:05:34;;;;;;;5.90;2.10;;;;;;;23.31;57.89;101444.84;3613314;39;20055;-65
2023/08/13 09:07:59;;;;;;;4.78;1.92;;;;;;;23.42;58.31;101450.06;3613333;39;20541;-66
2023/08/13 09:10:31;;;;;;;5.65;1.90;;;;;;;23.48;56.27;101446.66;3612562;39;20058;-66
2023/08/13 09:12:56;;;;;;;5.82;1.98;;;;;;;23.55;55.65;101441.38;3615446;39;20390;-67
2023/08/13 09:15:22;;;;;;;6.35;1.77;;;;;;;23.61;55.61;101447.06;3612691;39;20094;-66
2023/08/13 09:17:48;;;;;;;5.63;1.90;;;;;;;23.61;54.92;101441.56;3612610;39;20063;-65
2023/08/13 09:20:20;;;;;;;5.03;1.60;;;;;;;23.52;54.94;101441.72;3614705;39;20084;-65
2023/08/13 09:22:47;;;;;;;5.03;1.98;;;;;;;23.53;55.68;101437.94;3615599;39;20715;-65
2023/08/13 09:25:15;;;;;;;5.03;2.10;;;;;;;23.55;54.47;101441.38;3614550;39;20062;-65
2023/08/13 09:27:42;;;;;;;5.43;2.10;;;;;;;23.49;55.24;101420.09;3614067;39;20135;-65
2023/08/13 09:30:30;;;;;;;4.78;1.90;;;;;;;23.65;55.19;101442.09;3614454;39;20054;-65
2023/08/13 09:32:58;;;;;;;7.40;2.00;;;;;;;23.76;54.07;101438.25;3613112;39;20050;-65
2023/08/13 09:35:25;;;;;;;7.28;2.50;;;;;;;23.83;54.54;101429.16;3615186;39;20289;-66
2023/08/13 09:37:53;;;;;;;5.22;1.75;;;;;;;23.89;54.28;101416.66;3615530;39;20059;-65
2023/08/13 09:40:18;;;;;;;4.47;1.90;;;;;;;23.86;55.26;101389.53;3614818;39;20107;-65
2023/08/13 09:42:47;;;;;;;5.53;2.00;;;;;;;24.13;54.54;101413.09;3615861;39;20050;-65
2023/08/13 09:45:19;;;;;;;5.28;2.20;;;;;;;24.27;53.50;101419.81;3614708;39;20151;-65
2023/08/13 09:47:49;;;;;;;5.32;1.85;;;;;;;24.39;51.08;101412.09;3617169;39;20051;-65
2023/08/13 09:50:19;;;;;;;9.57;2.10;;;;;;;24.62;51.78;101407.66;3616840;39;20053;-65
2023/08/13 09:52:47;;;;;;;3.70;1.90;;;;;;;24.75;51.93;101413.50;3615997;39;20062;-65
2023/08/13 09:55:20;;;;;;;5.30;1.90;;;;;;;24.76;51.74;101403.34;3615598;39;20112;-66
2023/08/13 09:57:50;;;;;;;4.72;1.80;;;;;;;24.96;52.46;101398.31;3614294;39;20059;-65
2023/08/13 10:00:16;;;;;;;6.72;1.77;;;;;;;25.08;52.21;101393.31;3614006;39;20071;-65
2023/08/13 10:02:44;;;;;;;4.78;1.95;;;;;;;25.20;49.70;101405.69;3614705;39;21612;-65
2023/08/13 10:05:10;;;;;;;5.80;1.92;;;;;;;25.04;50.38;101408.47;3613383;39;20055;-65
2023/08/13 10:07:36;;;;;;;6.43;2.45;;;;;;;24.86;50.40;101392.16;3617039;39;20094;-65
2023/08/13 10:10:03;;;;;;;5.97;1.90;;;;;;;24.96;50.44;101401.97;3614279;39;20292;-65
2023/08/13 10:12:31;;;;;;;5.07;1.98;;;;;;;24.96;51.27;101401.97;3614247;39;20066;-65
2023/08/13 10:14:59;;;;;;;5.95;2.42;;;;;;;24.85;49.73;101406.97;3613875;39;20127;-65
2023/08/13 10:17:28;;;;;;;7.35;2.00;;;;;;;24.78;50.62;101401.28;3614313;39;20594;-65
2023/08/13 10:19:56;;;;;;;6.63;2.50;;;;;;;24.70;50.14;101399.41;3616845;39;20063;-64
2023/08/13 10:22:40;;;;;;;4.93;2.28;;;;;;;24.68;50.68;101395.97;3618801;39;20049;-65
2023/08/13 10:25:07;;;;;;;8.20;2.28;;;;;;;24.67;51.53;101399.75;3614165;39;20323;-65
2023/08/13 10:27:43;;;;;;;4.22;2.25;;;;;;;24.69;51.66;101394.09;3613933;39;20632;-65
2023/08/13 10:30:14;;;;;;;6.18;1.98;;;;;;;24.71;52.12;101398.38;3613402;39;20055;-65
2023/08/13 10:33:00;;;;;;;7.28;2.35;;;;;;;24.69;52.65;101386.69;3614173;39;20152;-65
2023/08/13 10:35:40;;;;;;;6.50;2.20;;;;;;;24.61;52.04;101389.47;3613649;39;20063;-65
2023/08/13 10:38:07;;;;;;;5.38;1.90;;;;;;;24.51;52.38;101378.63;3615127;39;20351;-65
2023/08/13 10:40:35;;;;;;;5.43;2.08;;;;;;;24.60;53.69;101384.13;3616096;39;20138;-65
2023/08/13 10:43:03;;;;;;;7.80;2.47;;;;;;;24.79;53.42;101386.50;3615475;39;20050;-65
2023/08/13 10:45:36;;;;;;;4.80;1.90;;;;;;;24.97;53.70;101389.06;3621649;39;20102;-65
2023/08/13 10:48:05;;;;;;;9.85;2.60;;;;;;;25.17;50.45;101382.13;3613542;39;20362;-65
2023/08/13 10:50:41;;;;;;;6.95;3.25;;;;;;;25.45;52.54;101381.69;3613597;39;20091;-65
2023/08/13 10:53:22;;;;;;;6.65;2.30;;;;;;;25.78;48.93;101381.53;3607465;39;20043;-66
2023/08/13 10:55:54;;;;;;;5.35;2.00;;;;;;;25.90;47.71;101358.06;3614293;39;20263;-66
2023/08/13 10:58:39;;;;;;;9.60;2.63;;;;;;;26.19;46.37;101378.53;3619757;39;20058;-65
2023/08/13 11:01:16;;;;;;;7.45;2.40;;;;;;;26.29;46.79;101379.13;3605375;39;20055;-67
2023/08/13 11:03:48;;;;;;;5.70;1.77;;;;;;;26.51;46.39;101381.03;3614242;39;20109;-65
2023/08/13 11:06:19;;;;;;;9.15;2.83;;;;;;;26.69;46.55;101380.72;3614141;39;20051;-66
2023/08/13 11:08:47;;;;;;;9.15;2.58;;;;;;;26.91;44.50;101378.94;3614978;39;20094;-66
2023/08/13 11:11:15;;;;;;;7.47;2.85;;;;;;;26.77;45.08;101375.13;3615341;39;20051;-65
2023/08/13 11:13:41;;;;;;;5.63;2.00;;;;;;;26.92;45.91;101372.38;3616432;39;20281;-66
2023/08/13 11:16:07;;;;;;;7.38;2.30;;;;;;;27.19;45.37;101370.03;3613972;39;20091;-66
2023/08/13 11:18:33;;;;;;;6.88;2.28;;;;;;;27.48;44.55;101367.25;3613543;39;20359;-66
2023/08/13 11:21:00;;;;;;;4.40;1.90;;;;;;;27.68;45.40;101344.53;3614516;39;20406;-65
2023/08/13 11:23:26;;;;;;;10.02;2.42;;;;;;;28.03;42.57;101375.97;3614192;39;20525;-65
2023/08/13 11:25:52;;;;;;;6.95;2.60;;;;;;;27.85;42.24;101370.06;3614897;39;20051;-65